sensor_id;sensor_type;location;lat;lon;timestamp;P1;durP1;ratioP1;P2;durP2;ratioP2
72284;SDS011;60220;53.552;10.092;2022-12-18T00:02:06;30.02;;;13.98;;
72284;SDS011;60220;53.552;10.092;2022-12-18T00:04:36;29.20;;;14.38;;
72284;SDS011;60220;53.552;10.092;2022-12-18T00:07:03;29.92;;;13.98;;
72284;SDS011;60220;53.552;10.092;2022-12-18T00:09:30;27.35;;;14.10;;
72284;SDS011;60220;53.552;10.092;2022-12-18T00:11:56;31.40;;;14.68;;
72284;SDS011;60220;53.552;10.092;2022-12-18T00:14:27;32.95;;;15.57;;
72284;SDS011;60220;53.552;10.092;2022-12-18T00:16:56;30.55;;;15.93;;
72284;SDS011;60220;53.552;10.092;2022-12-18T00:19:28;31.00;;;14.43;;
72284;SDS011;60220;53.552;10.092;2022-12-18T00:21:54;33.83;;;15.05;;
72284;SDS011;60220;53.552;10.092;2022-12-18T00:24:23;32.92;;;14.90;;
72284;SDS011;60220;53.552;10.092;2022-12-18T00:26:53;33.13;;;15.18;;
72284;SDS011;60220;53.552;10.092;2022-12-18T00:29:23;26.65;;;13.23;;
72284;SDS011;60220;53.552;10.092;2022-12-18T00:31:53;28.70;;;14.07;;
72284;SDS011;60220;53.552;10.092;2022-12-18T00:34:19;30.02;;;14.55;;
72284;SDS011;60220;53.552;10.092;2022-12-18T00:36:47;29.92;;;14.57;;
72284;SDS011;60220;53.552;10.092;2022-12-18T00:39:14;29.40;;;13.43;;
72284;SDS011;60220;53.552;10.092;2022-12-18T00:41:40;31.83;;;13.73;;
72284;SDS011;60220;53.552;10.092;2022-12-18T00:44:25;31.30;;;14.38;;
72284;SDS011;60220;53.552;10.092;2022-12-18T00:46:53;25.65;;;14.38;;
72284;SDS011;60220;53.552;10.092;2022-12-18T00:49:19;28.00;;;14.32;;
72284;SDS011;60220;53.552;10.092;2022-12-18T00:51:48;32.65;;;13.88;;
72284;SDS011;60220;53.552;10.092;2022-12-18T00:54:16;38.70;;;14.10;;
72284;SDS011;60220;53.552;10.092;2022-12-18T00:56:45;31.08;;;15.30;;
72284;SDS011;60220;53.552;10.092;2022-12-18T00:59:19;27.63;;;14.50;;
72284;SDS011;60220;53.552;10.092;2022-12-18T01:01:46;27.02;;;14.18;;
72284;SDS011;60220;53.552;10.092;2022-12-18T01:04:14;29.77;;;13.95;;
72284;SDS011;60220;53.552;10.092;2022-12-18T01:06:46;23.83;;;12.33;;
72284;SDS011;60220;53.552;10.092;2022-12-18T01:09:13;32.97;;;14.05;;
72284;SDS011;60220;53.552;10.092;2022-12-18T01:11:39;25.63;;;13.30;;
72284;SDS011;60220;53.552;10.092;2022-12-18T01:14:06;27.55;;;12.20;;
72284;SDS011;60220;53.552;10.092;2022-12-18T01:16:36;26.20;;;12.68;;
72284;SDS011;60220;53.552;10.092;2022-12-18T01:19:05;29.83;;;13.07;;
72284;SDS011;60220;53.552;10.092;2022-12-18T01:21:33;28.00;;;12.05;;
72284;SDS011;60220;53.552;10.092;2022-12-18T01:24:02;24.27;;;11.55;;
72284;SDS011;60220;53.552;10.092;2022-12-18T01:26:29;26.42;;;12.15;;
72284;SDS011;60220;53.552;10.092;2022-12-18T01:28:56;26.70;;;14.68;;
72284;SDS011;60220;53.552;10.092;2022-12-18T01:31:23;30.15;;;13.48;;
72284;SDS011;60220;53.552;10.092;2022-12-18T01:33:54;24.85;;;12.10;;
72284;SDS011;60220;53.552;10.092;2022-12-18T01:36:23;23.15;;;11.80;;
72284;SDS011;60220;53.552;10.092;2022-12-18T01:38:52;27.13;;;13.10;;
72284;SDS011;60220;53.552;10.092;2022-12-18T01:41:23;27.98;;;12.35;;
72284;SDS011;60220;53.552;10.092;2022-12-18T01:47:13;26.80;;;11.55;;
72284;SDS011;60220;53.552;10.092;2022-12-18T01:49:42;26.98;;;12.57;;
72284;SDS011;60220;53.552;10.092;2022-12-18T01:52:08;23.95;;;12.35;;
72284;SDS011;60220;53.552;10.092;2022-12-18T01:54:36;29.45;;;12.23;;
72284;SDS011;60220;53.552;10.092;2022-12-18T01:57:05;27.00;;;12.82;;
72284;SDS011;60220;53.552;10.092;2022-12-18T01:59:34;28.05;;;11.50;;
72284;SDS011;60220;53.552;10.092;2022-12-18T02:02:03;22.98;;;11.48;;
72284;SDS011;60220;53.552;10.092;2022-12-18T02:04:29;22.55;;;10.60;;
72284;SDS011;60220;53.552;10.092;2022-12-18T02:07:03;25.25;;;11.48;;
72284;SDS011;60220;53.552;10.092;2022-12-18T02:09:38;23.10;;;11.50;;
72284;SDS011;60220;53.552;10.092;2022-12-18T02:12:10;24.80;;;12.47;;
72284;SDS011;60220;53.552;10.092;2022-12-18T02:14:43;27.23;;;12.77;;
72284;SDS011;60220;53.552;10.092;2022-12-18T02:17:16;29.70;;;11.97;;
72284;SDS011;60220;53.552;10.092;2022-12-18T02:19:48;29.05;;;13.80;;
72284;SDS011;60220;53.552;10.092;2022-12-18T02:22:33;30.10;;;11.63;;
72284;SDS011;60220;53.552;10.092;2022-12-18T02:25:16;24.75;;;12.23;;
72284;SDS011;60220;53.552;10.092;2022-12-18T02:27:52;21.15;;;10.88;;
72284;SDS011;60220;53.552;10.092;2022-12-18T02:30:23;26.95;;;11.70;;
72284;SDS011;60220;53.552;10.092;2022-12-18T02:32:51;26.52;;;12.55;;
72284;SDS011;60220;53.552;10.092;2022-12-18T02:35:20;24.38;;;11.30;;
72284;SDS011;60220;53.552;10.092;2022-12-18T02:37:52;25.83;;;11.55;;
72284;SDS011;60220;53.552;10.092;2022-12-18T02:40:23;21.33;;;10.98;;
72284;SDS011;60220;53.552;10.092;2022-12-18T02:42:57;19.90;;;10.65;;
72284;SDS011;60220;53.552;10.092;2022-12-18T02:45:28;25.00;;;10.77;;
72284;SDS011;60220;53.552;10.092;2022-12-18T02:47:55;21.73;;;11.20;;
72284;SDS011;60220;53.552;10.092;2022-12-18T02:50:24;22.35;;;10.73;;
72284;SDS011;60220;53.552;10.092;2022-12-18T02:53:02;22.02;;;11.00;;
72284;SDS011;60220;53.552;10.092;2022-12-18T02:55:40;25.08;;;10.35;;
72284;SDS011;60220;53.552;10.092;2022-12-18T02:58:26;19.92;;;9.88;;
72284;SDS011;60220;53.552;10.092;2022-12-18T03:00:59;19.55;;;10.32;;
72284;SDS011;60220;53.552;10.092;2022-12-18T03:03:31;17.55;;;9.85;;
72284;SDS011;60220;53.552;10.092;2022-12-18T03:06:03;18.30;;;9.40;;
72284;SDS011;60220;53.552;10.092;2022-12-18T03:08:38;20.83;;;10.45;;
72284;SDS011;60220;53.552;10.092;2022-12-18T03:11:08;21.60;;;10.60;;
72284;SDS011;60220;53.552;10.092;2022-12-18T03:13:39;20.60;;;11.07;;
72284;SDS011;60220;53.552;10.092;2022-12-18T03:16:12;22.40;;;11.18;;
72284;SDS011;60220;53.552;10.092;2022-12-18T03:18:45;16.75;;;9.27;;
72284;SDS011;60220;53.552;10.092;2022-12-18T03:21:21;22.55;;;9.85;;
72284;SDS011;60220;53.552;10.092;2022-12-18T03:23:59;25.90;;;10.18;;
72284;SDS011;60220;53.552;10.092;2022-12-18T03:26:30;19.05;;;10.00;;
72284;SDS011;60220;53.552;10.092;2022-12-18T03:29:06;20.50;;;9.07;;
72284;SDS011;60220;53.552;10.092;2022-12-18T03:31:35;20.55;;;10.25;;
72284;SDS011;60220;53.552;10.092;2022-12-18T03:34:08;22.67;;;10.75;;
72284;SDS011;60220;53.552;10.092;2022-12-18T03:36:41;18.65;;;10.00;;
72284;SDS011;60220;53.552;10.092;2022-12-18T03:39:10;22.08;;;10.07;;
72284;SDS011;60220;53.552;10.092;2022-12-18T03:41:42;21.27;;;11.27;;
72284;SDS011;60220;53.552;10.092;2022-12-18T03:44:19;18.20;;;9.38;;
72284;SDS011;60220;53.552;10.092;2022-12-18T03:46:52;23.27;;;10.57;;
72284;SDS011;60220;53.552;10.092;2022-12-18T03:49:25;25.55;;;9.98;;
72284;SDS011;60220;53.552;10.092;2022-12-18T03:52:03;22.17;;;10.40;;
72284;SDS011;60220;53.552;10.092;2022-12-18T03:54:37;19.73;;;10.50;;
72284;SDS011;60220;53.552;10.092;2022-12-18T03:57:09;19.10;;;9.82;;
72284;SDS011;60220;53.552;10.092;2022-12-18T03:59:41;18.00;;;9.13;;
72284;SDS011;60220;53.552;10.092;2022-12-18T04:02:11;24.75;;;9.38;;
72284;SDS011;60220;53.552;10.092;2022-12-18T04:04:38;17.35;;;9.70;;
72284;SDS011;60220;53.552;10.092;2022-12-18T04:07:06;20.58;;;8.80;;
72284;SDS011;60220;53.552;10.092;2022-12-18T04:09:37;26.33;;;9.52;;
72284;SDS011;60220;53.552;10.092;2022-12-18T04:12:08;22.23;;;10.00;;
72284;SDS011;60220;53.552;10.092;2022-12-18T04:14:37;21.58;;;10.20;;
72284;SDS011;60220;53.552;10.092;2022-12-18T04:17:05;20.83;;;10.05;;
72284;SDS011;60220;53.552;10.092;2022-12-18T04:19:35;22.70;;;10.07;;
72284;SDS011;60220;53.552;10.092;2022-12-18T04:22:01;22.02;;;9.93;;
72284;SDS011;60220;53.552;10.092;2022-12-18T04:24:28;23.88;;;10.82;;
72284;SDS011;60220;53.552;10.092;2022-12-18T04:26:57;22.42;;;9.18;;
72284;SDS011;60220;53.552;10.092;2022-12-18T04:29:28;18.15;;;9.82;;
72284;SDS011;60220;53.552;10.092;2022-12-18T04:31:58;19.80;;;9.30;;
72284;SDS011;60220;53.552;10.092;2022-12-18T04:34:26;16.42;;;8.23;;
72284;SDS011;60220;53.552;10.092;2022-12-18T04:36:55;30.27;;;10.52;;
72284;SDS011;60220;53.552;10.092;2022-12-18T04:39:22;19.88;;;10.20;;
72284;SDS011;60220;53.552;10.092;2022-12-18T04:41:49;23.92;;;9.98;;
72284;SDS011;60220;53.552;10.092;2022-12-18T04:44:16;22.83;;;9.90;;
72284;SDS011;60220;53.552;10.092;2022-12-18T04:46:45;20.08;;;9.98;;
72284;SDS011;60220;53.552;10.092;2022-12-18T04:49:15;16.23;;;10.30;;
72284;SDS011;60220;53.552;10.092;2022-12-18T04:51:43;22.90;;;9.98;;
72284;SDS011;60220;53.552;10.092;2022-12-18T04:54:09;21.15;;;11.45;;
72284;SDS011;60220;53.552;10.092;2022-12-18T04:56:36;24.77;;;10.27;;
72284;SDS011;60220;53.552;10.092;2022-12-18T05:01:36;26.35;;;10.43;;
72284;SDS011;60220;53.552;10.092;2022-12-18T05:04:03;19.23;;;9.55;;
72284;SDS011;60220;53.552;10.092;2022-12-18T05:06:33;22.00;;;9.60;;
72284;SDS011;60220;53.552;10.092;2022-12-18T05:09:01;24.35;;;10.63;;
72284;SDS011;60220;53.552;10.092;2022-12-18T05:11:27;29.13;;;10.77;;
72284;SDS011;60220;53.552;10.092;2022-12-18T05:13:55;21.30;;;10.38;;
72284;SDS011;60220;53.552;10.092;2022-12-18T05:16:22;19.65;;;10.20;;
72284;SDS011;60220;53.552;10.092;2022-12-18T05:18:51;20.55;;;9.68;;
72284;SDS011;60220;53.552;10.092;2022-12-18T05:21:21;20.08;;;10.82;;
72284;SDS011;60220;53.552;10.092;2022-12-18T05:23:50;19.35;;;9.60;;
72284;SDS011;60220;53.552;10.092;2022-12-18T05:26:19;24.42;;;10.32;;
72284;SDS011;60220;53.552;10.092;2022-12-18T05:28:48;26.88;;;11.75;;
72284;SDS011;60220;53.552;10.092;2022-12-18T05:31:16;21.20;;;10.50;;
72284;SDS011;60220;53.552;10.092;2022-12-18T05:33:59;19.47;;;11.67;;
72284;SDS011;60220;53.552;10.092;2022-12-18T05:36:28;29.38;;;12.02;;
72284;SDS011;60220;53.552;10.092;2022-12-18T05:38:57;24.20;;;11.02;;
72284;SDS011;60220;53.552;10.092;2022-12-18T05:41:29;17.88;;;10.68;;
72284;SDS011;60220;53.552;10.092;2022-12-18T05:43:58;27.60;;;12.68;;
72284;SDS011;60220;53.552;10.092;2022-12-18T05:46:25;25.88;;;12.85;;
72284;SDS011;60220;53.552;10.092;2022-12-18T05:48:53;21.05;;;11.00;;
72284;SDS011;60220;53.552;10.092;2022-12-18T05:51:21;20.63;;;10.43;;
72284;SDS011;60220;53.552;10.092;2022-12-18T05:53:48;24.70;;;11.75;;
72284;SDS011;60220;53.552;10.092;2022-12-18T05:56:18;29.83;;;11.75;;
72284;SDS011;60220;53.552;10.092;2022-12-18T05:58:50;26.48;;;11.30;;
72284;SDS011;60220;53.552;10.092;2022-12-18T06:01:18;24.83;;;12.52;;
72284;SDS011;60220;53.552;10.092;2022-12-18T06:03:47;27.73;;;11.25;;
72284;SDS011;60220;53.552;10.092;2022-12-18T06:06:14;25.73;;;12.68;;
72284;SDS011;60220;53.552;10.092;2022-12-18T06:08:42;30.30;;;12.77;;
72284;SDS011;60220;53.552;10.092;2022-12-18T06:11:09;26.98;;;12.50;;
72284;SDS011;60220;53.552;10.092;2022-12-18T06:13:38;20.63;;;11.52;;
72284;SDS011;60220;53.552;10.092;2022-12-18T06:16:06;24.75;;;11.35;;
72284;SDS011;60220;53.552;10.092;2022-12-18T06:18:34;24.90;;;11.50;;
72284;SDS011;60220;53.552;10.092;2022-12-18T06:21:03;25.98;;;11.40;;
72284;SDS011;60220;53.552;10.092;2022-12-18T06:23:30;23.10;;;11.43;;
72284;SDS011;60220;53.552;10.092;2022-12-18T06:25:57;25.90;;;12.18;;
72284;SDS011;60220;53.552;10.092;2022-12-18T06:28:25;24.92;;;12.77;;
72284;SDS011;60220;53.552;10.092;2022-12-18T06:30:54;26.05;;;13.10;;
72284;SDS011;60220;53.552;10.092;2022-12-18T06:33:25;29.73;;;13.40;;
72284;SDS011;60220;53.552;10.092;2022-12-18T06:35:53;24.73;;;12.80;;
72284;SDS011;60220;53.552;10.092;2022-12-18T06:38:22;32.25;;;13.95;;
72284;SDS011;60220;53.552;10.092;2022-12-18T06:40:48;22.08;;;12.18;;
72284;SDS011;60220;53.552;10.092;2022-12-18T06:43:15;24.05;;;11.75;;
72284;SDS011;60220;53.552;10.092;2022-12-18T06:45:43;26.27;;;13.57;;
72284;SDS011;60220;53.552;10.092;2022-12-18T06:48:11;26.65;;;13.38;;
72284;SDS011;60220;53.552;10.092;2022-12-18T06:50:42;29.98;;;12.95;;
72284;SDS011;60220;53.552;10.092;2022-12-18T06:53:09;24.42;;;11.82;;
72284;SDS011;60220;53.552;10.092;2022-12-18T06:55:36;24.75;;;13.35;;
72284;SDS011;60220;53.552;10.092;2022-12-18T06:58:02;23.90;;;12.10;;
72284;SDS011;60220;53.552;10.092;2022-12-18T07:00:30;23.80;;;12.75;;
72284;SDS011;60220;53.552;10.092;2022-12-18T07:02:57;22.98;;;12.13;;
72284;SDS011;60220;53.552;10.092;2022-12-18T07:05:24;32.38;;;13.77;;
72284;SDS011;60220;53.552;10.092;2022-12-18T07:07:52;29.73;;;14.20;;
72284;SDS011;60220;53.552;10.092;2022-12-18T07:10:18;27.90;;;13.88;;
72284;SDS011;60220;53.552;10.092;2022-12-18T07:12:45;33.58;;;14.82;;
72284;SDS011;60220;53.552;10.092;2022-12-18T07:15:11;26.67;;;12.75;;
72284;SDS011;60220;53.552;10.092;2022-12-18T07:17:38;27.77;;;13.75;;
72284;SDS011;60220;53.552;10.092;2022-12-18T07:20:11;27.30;;;12.13;;
72284;SDS011;60220;53.552;10.092;2022-12-18T07:22:42;26.55;;;13.20;;
72284;SDS011;60220;53.552;10.092;2022-12-18T07:25:10;33.25;;;15.05;;
72284;SDS011;60220;53.552;10.092;2022-12-18T07:27:36;31.63;;;13.45;;
72284;SDS011;60220;53.552;10.092;2022-12-18T07:30:04;40.97;;;17.38;;
72284;SDS011;60220;53.552;10.092;2022-12-18T07:32:34;40.05;;;18.50;;
72284;SDS011;60220;53.552;10.092;2022-12-18T07:35:01;35.97;;;15.15;;
72284;SDS011;60220;53.552;10.092;2022-12-18T07:37:27;26.02;;;13.23;;
72284;SDS011;60220;53.552;10.092;2022-12-18T07:39:55;33.13;;;14.95;;
72284;SDS011;60220;53.552;10.092;2022-12-18T07:42:26;25.25;;;13.82;;
72284;SDS011;60220;53.552;10.092;2022-12-18T07:44:58;29.85;;;13.90;;
72284;SDS011;60220;53.552;10.092;2022-12-18T07:47:26;26.33;;;14.55;;
72284;SDS011;60220;53.552;10.092;2022-12-18T07:49:53;28.65;;;14.15;;
72284;SDS011;60220;53.552;10.092;2022-12-18T07:52:19;34.05;;;14.02;;
72284;SDS011;60220;53.552;10.092;2022-12-18T07:54:46;27.88;;;13.15;;
72284;SDS011;60220;53.552;10.092;2022-12-18T07:57:14;23.52;;;12.90;;
72284;SDS011;60220;53.552;10.092;2022-12-18T07:59:42;30.13;;;13.75;;
72284;SDS011;60220;53.552;10.092;2022-12-18T08:02:09;29.52;;;13.82;;
72284;SDS011;60220;53.552;10.092;2022-12-18T08:04:35;35.35;;;14.52;;
72284;SDS011;60220;53.552;10.092;2022-12-18T08:07:04;31.42;;;14.40;;
72284;SDS011;60220;53.552;10.092;2022-12-18T08:09:31;28.73;;;14.38;;
72284;SDS011;60220;53.552;10.092;2022-12-18T08:11:58;24.83;;;13.15;;
72284;SDS011;60220;53.552;10.092;2022-12-18T08:14:24;27.42;;;14.43;;
72284;SDS011;60220;53.552;10.092;2022-12-18T08:16:55;27.38;;;13.68;;
72284;SDS011;60220;53.552;10.092;2022-12-18T08:19:21;31.80;;;14.02;;
72284;SDS011;60220;53.552;10.092;2022-12-18T08:21:48;29.80;;;12.95;;
72284;SDS011;60220;53.552;10.092;2022-12-18T08:24:15;32.50;;;13.30;;
72284;SDS011;60220;53.552;10.092;2022-12-18T08:26:44;29.95;;;14.98;;
72284;SDS011;60220;53.552;10.092;2022-12-18T08:29:11;28.98;;;14.38;;
72284;SDS011;60220;53.552;10.092;2022-12-18T08:31:37;42.05;;;18.67;;
72284;SDS011;60220;53.552;10.092;2022-12-18T08:34:05;25.83;;;12.88;;
72284;SDS011;60220;53.552;10.092;2022-12-18T08:36:32;29.73;;;13.48;;
72284;SDS011;60220;53.552;10.092;2022-12-18T08:38:58;29.98;;;13.27;;
72284;SDS011;60220;53.552;10.092;2022-12-18T08:41:25;28.60;;;13.90;;
72284;SDS011;60220;53.552;10.092;2022-12-18T08:43:52;28.90;;;13.63;;
72284;SDS011;60220;53.552;10.092;2022-12-18T08:46:40;25.90;;;12.43;;
72284;SDS011;60220;53.552;10.092;2022-12-18T08:49:09;28.40;;;11.75;;
72284;SDS011;60220;53.552;10.092;2022-12-18T08:51:37;29.83;;;14.35;;
72284;SDS011;60220;53.552;10.092;2022-12-18T08:54:05;30.02;;;14.30;;
72284;SDS011;60220;53.552;10.092;2022-12-18T08:56:32;27.15;;;12.35;;
72284;SDS011;60220;53.552;10.092;2022-12-18T08:58:59;24.02;;;12.77;;
72284;SDS011;60220;53.552;10.092;2022-12-18T09:01:26;28.33;;;13.10;;
72284;SDS011;60220;53.552;10.092;2022-12-18T09:03:52;29.95;;;12.52;;
72284;SDS011;60220;53.552;10.092;2022-12-18T09:06:20;27.90;;;13.20;;
72284;SDS011;60220;53.552;10.092;2022-12-18T09:08:48;27.92;;;12.98;;
72284;SDS011;60220;53.552;10.092;2022-12-18T09:11:22;25.17;;;12.75;;
72284;SDS011;60220;53.552;10.092;2022-12-18T09:13:51;22.25;;;10.82;;
72284;SDS011;60220;53.552;10.092;2022-12-18T09:16:19;30.52;;;12.27;;
72284;SDS011;60220;53.552;10.092;2022-12-18T09:18:46;26.85;;;11.52;;
72284;SDS011;60220;53.552;10.092;2022-12-18T09:21:13;22.33;;;11.57;;
72284;SDS011;60220;53.552;10.092;2022-12-18T09:23:43;26.92;;;11.77;;
72284;SDS011;60220;53.552;10.092;2022-12-18T09:26:10;29.20;;;12.07;;
72284;SDS011;60220;53.552;10.092;2022-12-18T09:28:37;26.48;;;11.05;;
72284;SDS011;60220;53.552;10.092;2022-12-18T09:31:04;34.58;;;13.98;;
72284;SDS011;60220;53.552;10.092;2022-12-18T09:33:33;31.63;;;12.18;;
72284;SDS011;60220;53.552;10.092;2022-12-18T09:36:00;27.85;;;13.00;;
72284;SDS011;60220;53.552;10.092;2022-12-18T09:38:28;27.77;;;13.77;;
72284;SDS011;60220;53.552;10.092;2022-12-18T09:40:57;30.65;;;12.05;;
72284;SDS011;60220;53.552;10.092;2022-12-18T09:43:28;29.48;;;13.70;;
72284;SDS011;60220;53.552;10.092;2022-12-18T09:46:01;52.33;;;23.77;;
72284;SDS011;60220;53.552;10.092;2022-12-18T09:48:31;25.75;;;12.90;;
72284;SDS011;60220;53.552;10.092;2022-12-18T09:51:02;24.60;;;12.60;;
72284;SDS011;60220;53.552;10.092;2022-12-18T09:53:35;27.20;;;11.60;;
72284;SDS011;60220;53.552;10.092;2022-12-18T09:56:06;26.17;;;11.20;;
72284;SDS011;60220;53.552;10.092;2022-12-18T09:58:43;25.35;;;12.30;;
72284;SDS011;60220;53.552;10.092;2022-12-18T10:01:15;24.27;;;10.43;;
72284;SDS011;60220;53.552;10.092;2022-12-18T10:03:46;22.65;;;11.35;;
72284;SDS011;60220;53.552;10.092;2022-12-18T10:06:14;21.45;;;11.68;;
72284;SDS011;60220;53.552;10.092;2022-12-18T10:08:46;26.80;;;12.60;;
72284;SDS011;60220;53.552;10.092;2022-12-18T10:11:24;29.42;;;13.13;;
72284;SDS011;60220;53.552;10.092;2022-12-18T10:14:04;25.97;;;10.50;;
72284;SDS011;60220;53.552;10.092;2022-12-18T10:16:36;22.55;;;10.48;;
72284;SDS011;60220;53.552;10.092;2022-12-18T10:19:17;25.90;;;12.23;;
72284;SDS011;60220;53.552;10.092;2022-12-18T10:22:01;24.33;;;12.07;;
72284;SDS011;60220;53.552;10.092;2022-12-18T10:24:46;23.92;;;11.45;;
72284;SDS011;60220;53.552;10.092;2022-12-18T10:27:22;25.23;;;11.38;;
72284;SDS011;60220;53.552;10.092;2022-12-18T10:29:53;22.98;;;11.05;;
72284;SDS011;60220;53.552;10.092;2022-12-18T10:32:22;21.98;;;11.35;;
72284;SDS011;60220;53.552;10.092;2022-12-18T10:34:51;23.08;;;11.45;;
72284;SDS011;60220;53.552;10.092;2022-12-18T10:37:22;21.65;;;12.02;;
72284;SDS011;60220;53.552;10.092;2022-12-18T10:40:04;27.65;;;12.57;;
72284;SDS011;60220;53.552;10.092;2022-12-18T10:42:36;27.42;;;12.20;;
72284;SDS011;60220;53.552;10.092;2022-12-18T10:45:05;27.25;;;12.25;;
72284;SDS011;60220;53.552;10.092;2022-12-18T10:47:36;25.65;;;10.23;;
72284;SDS011;60220;53.552;10.092;2022-12-18T10:50:10;22.05;;;11.93;;
72284;SDS011;60220;53.552;10.092;2022-12-18T10:52:52;26.05;;;11.93;;
72284;SDS011;60220;53.552;10.092;2022-12-18T10:55:21;30.30;;;12.98;;
72284;SDS011;60220;53.552;10.092;2022-12-18T10:57:49;26.80;;;13.02;;
72284;SDS011;60220;53.552;10.092;2022-12-18T11:00:25;32.45;;;14.43;;
72284;SDS011;60220;53.552;10.092;2022-12-18T11:02:53;29.20;;;12.75;;
72284;SDS011;60220;53.552;10.092;2022-12-18T11:05:25;23.80;;;11.60;;
72284;SDS011;60220;53.552;10.092;2022-12-18T11:07:54;28.25;;;12.50;;
72284;SDS011;60220;53.552;10.092;2022-12-18T11:10:22;28.00;;;14.63;;
72284;SDS011;60220;53.552;10.092;2022-12-18T11:12:52;20.70;;;9.95;;
72284;SDS011;60220;53.552;10.092;2022-12-18T11:15:20;26.05;;;12.60;;
72284;SDS011;60220;53.552;10.092;2022-12-18T11:17:50;26.77;;;11.73;;
72284;SDS011;60220;53.552;10.092;2022-12-18T11:20:21;28.75;;;11.30;;
72284;SDS011;60220;53.552;10.092;2022-12-18T11:22:57;26.05;;;13.45;;
72284;SDS011;60220;53.552;10.092;2022-12-18T11:25:28;27.85;;;13.15;;
72284;SDS011;60220;53.552;10.092;2022-12-18T11:27:58;24.45;;;12.30;;
72284;SDS011;60220;53.552;10.092;2022-12-18T11:30:29;21.25;;;10.75;;
72284;SDS011;60220;53.552;10.092;2022-12-18T11:33:03;23.20;;;11.48;;
72284;SDS011;60220;53.552;10.092;2022-12-18T11:35:37;23.52;;;12.65;;
72284;SDS011;60220;53.552;10.092;2022-12-18T11:38:13;23.85;;;12.45;;
72284;SDS011;60220;53.552;10.092;2022-12-18T11:40:49;26.83;;;12.77;;
72284;SDS011;60220;53.552;10.092;2022-12-18T11:43:25;28.52;;;12.55;;
72284;SDS011;60220;53.552;10.092;2022-12-18T11:45:56;25.52;;;11.25;;
72284;SDS011;60220;53.552;10.092;2022-12-18T11:48:29;23.15;;;12.40;;
72284;SDS011;60220;53.552;10.092;2022-12-18T11:51:01;22.17;;;12.45;;
72284;SDS011;60220;53.552;10.092;2022-12-18T11:53:31;26.55;;;11.25;;
72284;SDS011;60220;53.552;10.092;2022-12-18T11:56:04;24.52;;;11.98;;
72284;SDS011;60220;53.552;10.092;2022-12-18T12:01:15;23.70;;;11.63;;
72284;SDS011;60220;53.552;10.092;2022-12-18T12:04:02;24.25;;;12.63;;
72284;SDS011;60220;53.552;10.092;2022-12-18T12:06:44;29.27;;;13.30;;
72284;SDS011;60220;53.552;10.092;2022-12-18T12:09:19;24.02;;;11.90;;
72284;SDS011;60220;53.552;10.092;2022-12-18T12:11:59;29.33;;;11.93;;
72284;SDS011;60220;53.552;10.092;2022-12-18T12:14:41;24.33;;;11.65;;
72284;SDS011;60220;53.552;10.092;2022-12-18T12:17:20;22.45;;;11.57;;
72284;SDS011;60220;53.552;10.092;2022-12-18T12:20:02;23.13;;;11.02;;
72284;SDS011;60220;53.552;10.092;2022-12-18T12:22:37;28.00;;;11.48;;
72284;SDS011;60220;53.552;10.092;2022-12-18T12:25:19;23.88;;;11.13;;
72284;SDS011;60220;53.552;10.092;2022-12-18T12:27:57;22.23;;;10.65;;
72284;SDS011;60220;53.552;10.092;2022-12-18T12:30:38;23.60;;;11.40;;
72284;SDS011;60220;53.552;10.092;2022-12-18T12:33:17;28.52;;;12.40;;
72284;SDS011;60220;53.552;10.092;2022-12-18T12:35:58;31.50;;;12.25;;
72284;SDS011;60220;53.552;10.092;2022-12-18T12:38:35;29.48;;;12.02;;
72284;SDS011;60220;53.552;10.092;2022-12-18T12:41:08;23.83;;;11.82;;
72284;SDS011;60220;53.552;10.092;2022-12-18T12:43:59;27.63;;;12.80;;
72284;SDS011;60220;53.552;10.092;2022-12-18T12:46:29;26.85;;;13.15;;
72284;SDS011;60220;53.552;10.092;2022-12-18T12:48:59;26.00;;;12.25;;
72284;SDS011;60220;53.552;10.092;2022-12-18T12:51:30;28.27;;;11.20;;
72284;SDS011;60220;53.552;10.092;2022-12-18T12:54:00;24.27;;;11.70;;
72284;SDS011;60220;53.552;10.092;2022-12-18T12:56:31;27.20;;;12.82;;
72284;SDS011;60220;53.552;10.092;2022-12-18T12:59:08;23.77;;;11.60;;
72284;SDS011;60220;53.552;10.092;2022-12-18T13:01:41;22.88;;;10.80;;
72284;SDS011;60220;53.552;10.092;2022-12-18T13:04:21;27.95;;;11.43;;
72284;SDS011;60220;53.552;10.092;2022-12-18T13:06:58;27.98;;;13.00;;
72284;SDS011;60220;53.552;10.092;2022-12-18T13:09:31;29.55;;;12.40;;
72284;SDS011;60220;53.552;10.092;2022-12-18T13:12:01;28.85;;;11.63;;
72284;SDS011;60220;53.552;10.092;2022-12-18T13:14:47;29.83;;;12.27;;
72284;SDS011;60220;53.552;10.092;2022-12-18T13:17:15;36.40;;;13.48;;
72284;SDS011;60220;53.552;10.092;2022-12-18T13:20:04;28.33;;;12.75;;
72284;SDS011;60220;53.552;10.092;2022-12-18T13:22:34;28.67;;;12.65;;
72284;SDS011;60220;53.552;10.092;2022-12-18T13:25:03;29.02;;;12.90;;
72284;SDS011;60220;53.552;10.092;2022-12-18T13:28:07;29.67;;;11.88;;
72284;SDS011;60220;53.552;10.092;2022-12-18T13:30:45;26.63;;;11.88;;
72284;SDS011;60220;53.552;10.092;2022-12-18T13:36:28;28.10;;;11.48;;
72284;SDS011;60220;53.552;10.092;2022-12-18T13:41:50;26.48;;;13.23;;
72284;SDS011;60220;53.552;10.092;2022-12-18T13:44:26;24.63;;;11.43;;
72284;SDS011;60220;53.552;10.092;2022-12-18T13:46:58;30.23;;;10.80;;
72284;SDS011;60220;53.552;10.092;2022-12-18T13:49:28;30.38;;;12.70;;
72284;SDS011;60220;53.552;10.092;2022-12-18T13:52:02;32.63;;;13.32;;
72284;SDS011;60220;53.552;10.092;2022-12-18T13:54:41;31.23;;;12.73;;
72284;SDS011;60220;53.552;10.092;2022-12-18T13:57:25;27.50;;;10.60;;
72284;SDS011;60220;53.552;10.092;2022-12-18T13:59:52;27.63;;;12.77;;
72284;SDS011;60220;53.552;10.092;2022-12-18T14:02:20;36.30;;;12.68;;
72284;SDS011;60220;53.552;10.092;2022-12-18T14:04:50;36.28;;;14.13;;
72284;SDS011;60220;53.552;10.092;2022-12-18T14:07:18;32.28;;;14.65;;
72284;SDS011;60220;53.552;10.092;2022-12-18T14:09:48;33.97;;;15.05;;
72284;SDS011;60220;53.552;10.092;2022-12-18T14:12:18;33.92;;;12.68;;
72284;SDS011;60220;53.552;10.092;2022-12-18T14:15:06;29.05;;;13.65;;
72284;SDS011;60220;53.552;10.092;2022-12-18T14:17:41;36.60;;;14.65;;
72284;SDS011;60220;53.552;10.092;2022-12-18T14:20:14;37.90;;;14.35;;
72284;SDS011;60220;53.552;10.092;2022-12-18T14:22:42;33.25;;;14.43;;
72284;SDS011;60220;53.552;10.092;2022-12-18T14:25:15;32.60;;;12.95;;
72284;SDS011;60220;53.552;10.092;2022-12-18T14:27:44;28.55;;;12.32;;
72284;SDS011;60220;53.552;10.092;2022-12-18T14:30:26;31.83;;;13.68;;
72284;SDS011;60220;53.552;10.092;2022-12-18T14:33:03;36.22;;;15.07;;
72284;SDS011;60220;53.552;10.092;2022-12-18T14:35:36;33.92;;;14.73;;
72284;SDS011;60220;53.552;10.092;2022-12-18T14:38:19;35.42;;;15.90;;
72284;SDS011;60220;53.552;10.092;2022-12-18T14:40:52;32.70;;;14.05;;
72284;SDS011;60220;53.552;10.092;2022-12-18T14:43:26;38.38;;;14.80;;
72284;SDS011;60220;53.552;10.092;2022-12-18T14:45:54;32.53;;;14.00;;
72284;SDS011;60220;53.552;10.092;2022-12-18T14:48:22;35.70;;;14.48;;